sensor_id;sensor_type;location;lat;lon;timestamp;temperature;humidity
1411;DHT22;700;51.906;8.404;2023-07-30T00:00:30;20.20;99.90
1411;DHT22;700;51.906;8.404;2023-07-30T00:05:33;20.20;99.90
1411;DHT22;700;51.906;8.404;2023-07-30T00:10:36;20.30;99.90
1411;DHT22;700;51.906;8.404;2023-07-30T00:15:37;20.40;99.90
1411;DHT22;700;51.906;8.404;2023-07-30T00:20:40;20.40;99.90
1411;DHT22;700;51.906;8.404;2023-07-30T00:25:40;20.60;99.90
1411;DHT22;700;51.906;8.404;2023-07-30T00:30:41;20.70;99.90
1411;DHT22;700;51.906;8.404;2023-07-30T00:35:42;20.50;99.90
1411;DHT22;700;51.906;8.404;2023-07-30T00:40:42;20.40;99.90
1411;DHT22;700;51.906;8.404;2023-07-30T00:45:44;20.50;99.90
1411;DHT22;700;51.906;8.404;2023-07-30T00:50:45;20.40;99.90
1411;DHT22;700;51.906;8.404;2023-07-30T00:55:45;20.40;99.90
1411;DHT22;700;51.906;8.404;2023-07-30T01:00:46;20.50;99.90
1411;DHT22;700;51.906;8.404;2023-07-30T01:05:50;20.40;99.90
1411;DHT22;700;51.906;8.404;2023-07-30T01:10:51;20.20;99.90
1411;DHT22;700;51.906;8.404;2023-07-30T01:15:52;20.20;99.90
1411;DHT22;700;51.906;8.404;2023-07-30T01:20:53;20.00;99.90
1411;DHT22;700;51.906;8.404;2023-07-30T01:26:02;20.00;99.90
1411;DHT22;700;51.906;8.404;2023-07-30T01:31:06;20.00;99.90
1411;DHT22;700;51.906;8.404;2023-07-30T01:36:10;20.00;99.90
1411;DHT22;700;51.906;8.404;2023-07-30T01:41:13;19.90;99.90
1411;DHT22;700;51.906;8.404;2023-07-30T01:46:18;19.90;99.90
1411;DHT22;700;51.906;8.404;2023-07-30T01:51:18;19.80;99.90
1411;DHT22;700;51.906;8.404;2023-07-30T01:56:19;19.50;99.90
1411;DHT22;700;51.906;8.404;2023-07-30T02:01:20;19.60;99.90
1411;DHT22;700;51.906;8.404;2023-07-30T02:06:20;19.60;99.90
1411;DHT22;700;51.906;8.404;2023-07-30T02:11:21;19.50;99.90
1411;DHT22;700;51.906;8.404;2023-07-30T02:16:21;19.60;99.90
1411;DHT22;700;51.906;8.404;2023-07-30T02:21:24;19.60;99.90
1411;DHT22;700;51.906;8.404;2023-07-30T02:26:25;19.30;99.90
1411;DHT22;700;51.906;8.404;2023-07-30T02:31:25;19.30;99.90
1411;DHT22;700;51.906;8.404;2023-07-30T02:36:31;19.10;99.90
1411;DHT22;700;51.906;8.404;2023-07-30T02:41:32;19.30;99.90
1411;DHT22;700;51.906;8.404;2023-07-30T02:46:34;19.00;99.90
1411;DHT22;700;51.906;8.404;2023-07-30T02:51:35;19.00;99.90
1411;DHT22;700;51.906;8.404;2023-07-30T02:56:36;18.90;99.90
1411;DHT22;700;51.906;8.404;2023-07-30T03:01:36;18.90;99.90
1411;DHT22;700;51.906;8.404;2023-07-30T03:06:41;19.00;99.90
1411;DHT22;700;51.906;8.404;2023-07-30T03:11:44;18.80;99.90
1411;DHT22;700;51.906;8.404;2023-07-30T03:16:50;18.50;99.90
1411;DHT22;700;51.906;8.404;2023-07-30T03:21:53;18.50;99.90
1411;DHT22;700;51.906;8.404;2023-07-30T03:26:54;18.70;99.90
1411;DHT22;700;51.906;8.404;2023-07-30T03:31:57;18.70;99.90
1411;DHT22;700;51.906;8.404;2023-07-30T03:36:58;18.60;99.90
1411;DHT22;700;51.906;8.404;2023-07-30T03:42:00;18.60;99.90
1411;DHT22;700;51.906;8.404;2023-07-30T03:47:03;18.60;99.90
1411;DHT22;700;51.906;8.404;2023-07-30T03:52:04;18.30;99.90
1411;DHT22;700;51.906;8.404;2023-07-30T03:57:07;18.30;99.90
1411;DHT22;700;51.906;8.404;2023-07-30T04:02:07;18.30;99.90
1411;DHT22;700;51.906;8.404;2023-07-30T04:07:16;18.10;99.90
1411;DHT22;700;51.906;8.404;2023-07-30T04:12:16;18.30;99.90
1411;DHT22;700;51.906;8.404;2023-07-30T04:17:24;18.10;99.90
1411;DHT22;700;51.906;8.404;2023-07-30T04:22:24;18.10;99.90
1411;DHT22;700;51.906;8.404;2023-07-30T04:27:25;18.10;99.90
1411;DHT22;700;51.906;8.404;2023-07-30T04:32:28;18.10;99.90
1411;DHT22;700;51.906;8.404;2023-07-30T04:37:29;18.30;99.90
1411;DHT22;700;51.906;8.404;2023-07-30T04:42:32;18.40;99.90
1411;DHT22;700;51.906;8.404;2023-07-30T04:47:35;18.40;99.90
1411;DHT22;700;51.906;8.404;2023-07-30T04:52:38;18.20;99.90
1411;DHT22;700;51.906;8.404;2023-07-30T04:57:40;18.20;99.90
1411;DHT22;700;51.906;8.404;2023-07-30T05:02:41;18.10;99.90
1411;DHT22;700;51.906;8.404;2023-07-30T05:07:44;18.00;99.90
1411;DHT22;700;51.906;8.404;2023-07-30T05:12:45;18.10;99.90
1411;DHT22;700;51.906;8.404;2023-07-30T05:17:45;18.00;99.90
1411;DHT22;700;51.906;8.404;2023-07-30T05:22:46;18.10;99.90
1411;DHT22;700;51.906;8.404;2023-07-30T05:27:51;18.00;99.90
1411;DHT22;700;51.906;8.404;2023-07-30T05:32:52;18.20;99.90
1411;DHT22;700;51.906;8.404;2023-07-30T05:37:52;18.40;99.90
1411;DHT22;700;51.906;8.404;2023-07-30T05:42:55;18.50;99.90
1411;DHT22;700;51.906;8.404;2023-07-30T05:47:55;18.60;99.90
1411;DHT22;700;51.906;8.404;2023-07-30T05:52:56;18.40;99.90
1411;DHT22;700;51.906;8.404;2023-07-30T05:57:57;18.40;99.90
1411;DHT22;700;51.906;8.404;2023-07-30T06:02:58;18.60;99.90
1411;DHT22;700;51.906;8.404;2023-07-30T06:08:01;18.70;99.90
1411;DHT22;700;51.906;8.404;2023-07-30T06:13:06;18.60;99.90
1411;DHT22;700;51.906;8.404;2023-07-30T06:18:09;18.50;99.90
1411;DHT22;700;51.906;8.404;2023-07-30T06:23:10;18.60;99.90
1411;DHT22;700;51.906;8.404;2023-07-30T06:28:10;19.10;99.90
1411;DHT22;700;51.906;8.404;2023-07-30T06:33:11;19.30;99.90
1411;DHT22;700;51.906;8.404;2023-07-30T06:38:11;19.70;99.90
1411;DHT22;700;51.906;8.404;2023-07-30T06:43:12;19.40;99.90
1411;DHT22;700;51.906;8.404;2023-07-30T06:48:15;20.00;99.90
1411;DHT22;700;51.906;8.404;2023-07-30T06:53:16;20.20;99.90
1411;DHT22;700;51.906;8.404;2023-07-30T06:58:16;20.10;99.90
1411;DHT22;700;51.906;8.404;2023-07-30T07:03:17;20.30;99.90
1411;DHT22;700;51.906;8.404;2023-07-30T07:08:23;19.80;99.90
1411;DHT22;700;51.906;8.404;2023-07-30T07:13:24;19.70;99.90
1411;DHT22;700;51.906;8.404;2023-07-30T07:18:25;19.90;99.90
1411;DHT22;700;51.906;8.404;2023-07-30T07:23:26;20.20;99.90
1411;DHT22;700;51.906;8.404;2023-07-30T07:28:26;20.20;99.90
1411;DHT22;700;51.906;8.404;2023-07-30T07:33:27;20.20;99.90
1411;DHT22;700;51.906;8.404;2023-07-30T07:38:28;20.00;99.90
1411;DHT22;700;51.906;8.404;2023-07-30T07:43:33;20.10;99.90
1411;DHT22;700;51.906;8.404;2023-07-30T07:48:36;19.40;99.90
1411;DHT22;700;51.906;8.404;2023-07-30T07:53:37;19.90;99.90
1411;DHT22;700;51.906;8.404;2023-07-30T07:58:38;19.80;99.90
1411;DHT22;700;51.906;8.404;2023-07-30T08:03:38;19.60;99.90
1411;DHT22;700;51.906;8.404;2023-07-30T08:08:41;19.80;99.90
1411;DHT22;700;51.906;8.404;2023-07-30T08:13:44;19.80;99.90
1411;DHT22;700;51.906;8.404;2023-07-30T08:18:48;19.70;99.90
1411;DHT22;700;51.906;8.404;2023-07-30T08:23:53;19.60;99.90
1411;DHT22;700;51.906;8.404;2023-07-30T08:28:54;19.50;99.90
1411;DHT22;700;51.906;8.404;2023-07-30T08:33:56;19.30;99.90
1411;DHT22;700;51.906;8.404;2023-07-30T08:38:57;19.80;99.90
1411;DHT22;700;51.906;8.404;2023-07-30T08:43:58;19.70;99.90
1411;DHT22;700;51.906;8.404;2023-07-30T08:48:59;20.10;99.90
1411;DHT22;700;51.906;8.404;2023-07-30T08:54:00;20.00;99.90
1411;DHT22;700;51.906;8.404;2023-07-30T08:59:03;19.80;99.90
1411;DHT22;700;51.906;8.404;2023-07-30T09:04:06;19.90;99.90
1411;DHT22;700;51.906;8.404;2023-07-30T09:09:07;20.20;99.90
1411;DHT22;700;51.906;8.404;2023-07-30T09:14:09;20.20;99.90
1411;DHT22;700;51.906;8.404;2023-07-30T09:19:18;20.40;99.90
1411;DHT22;700;51.906;8.404;2023-07-30T09:24:22;20.40;99.90
1411;DHT22;700;51.906;8.404;2023-07-30T09:29:22;20.10;99.90
1411;DHT22;700;51.906;8.404;2023-07-30T09:34:24;20.10;99.90
1411;DHT22;700;51.906;8.404;2023-07-30T09:39:27;20.50;99.90
1411;DHT22;700;51.906;8.404;2023-07-30T09:44:31;20.50;99.90
1411;DHT22;700;51.906;8.404;2023-07-30T09:49:35;20.10;99.90
1411;DHT22;700;51.906;8.404;2023-07-30T09:54:36;20.20;99.90
1411;DHT22;700;51.906;8.404;2023-07-30T09:59:38;20.40;99.90
1411;DHT22;700;51.906;8.404;2023-07-30T10:04:43;20.30;99.90
1411;DHT22;700;51.906;8.404;2023-07-30T10:09:51;20.50;99.90
1411;DHT22;700;51.906;8.404;2023-07-30T10:14:55;20.60;99.90
1411;DHT22;700;51.906;8.404;2023-07-30T10:19:55;20.60;99.90
1411;DHT22;700;51.906;8.404;2023-07-30T10:25:01;21.00;99.90
1411;DHT22;700;51.906;8.404;2023-07-30T10:30:17;21.90;99.90
1411;DHT22;700;51.906;8.404;2023-07-30T10:35:38;22.40;99.90
1411;DHT22;700;51.906;8.404;2023-07-30T10:40:41;21.90;99.90
1411;DHT22;700;51.906;8.404;2023-07-30T10:45:50;21.60;99.90
1411;DHT22;700;51.906;8.404;2023-07-30T10:50:51;23.00;99.90
1411;DHT22;700;51.906;8.404;2023-07-30T10:55:52;25.40;99.90
1411;DHT22;700;51.906;8.404;2023-07-30T11:01:02;25.00;99.90
1411;DHT22;700;51.906;8.404;2023-07-30T11:06:03;24.80;99.90
1411;DHT22;700;51.906;8.404;2023-07-30T11:11:09;25.30;99.90
1411;DHT22;700;51.906;8.404;2023-07-30T11:16:10;26.40;99.90
1411;DHT22;700;51.906;8.404;2023-07-30T11:21:13;28.00;99.90
1411;DHT22;700;51.906;8.404;2023-07-30T11:26:19;26.10;99.90
1411;DHT22;700;51.906;8.404;2023-07-30T11:31:23;28.90;99.90
1411;DHT22;700;51.906;8.404;2023-07-30T11:36:27;33.30;92.40
1411;DHT22;700;51.906;8.404;2023-07-30T11:41:32;36.10;71.30
1411;DHT22;700;51.906;8.404;2023-07-30T11:46:33;39.60;56.80
1411;DHT22;700;51.906;8.404;2023-07-30T11:51:40;37.30;53.40
1411;DHT22;700;51.906;8.404;2023-07-30T11:56:56;34.10;58.70
1411;DHT22;700;51.906;8.404;2023-07-30T12:02:00;30.50;64.50
1411;DHT22;700;51.906;8.404;2023-07-30T12:07:03;27.60;75.10
1411;DHT22;700;51.906;8.404;2023-07-30T12:12:06;26.30;84.00
1411;DHT22;700;51.906;8.404;2023-07-30T12:17:09;24.80;89.40
1411;DHT22;700;51.906;8.404;2023-07-30T12:22:10;24.60;95.00
1411;DHT22;700;51.906;8.404;2023-07-30T12:27:12;23.60;97.90
1411;DHT22;700;51.906;8.404;2023-07-30T12:32:18;23.00;99.90
1411;DHT22;700;51.906;8.404;2023-07-30T12:37:18;22.50;99.90
1411;DHT22;700;51.906;8.404;2023-07-30T12:42:19;22.70;99.90
1411;DHT22;700;51.906;8.404;2023-07-30T12:47:22;23.60;99.90
1411;DHT22;700;51.906;8.404;2023-07-30T12:52:22;25.70;99.90
1411;DHT22;700;51.906;8.404;2023-07-30T12:57:26;26.00;99.90
1411;DHT22;700;51.906;8.404;2023-07-30T13:02:29;26.30;99.90
1411;DHT22;700;51.906;8.404;2023-07-30T13:07:29;25.80;99.90
1411;DHT22;700;51.906;8.404;2023-07-30T13:12:30;25.60;99.90
1411;DHT22;700;51.906;8.404;2023-07-30T13:17:33;25.50;99.90
1411;DHT22;700;51.906;8.404;2023-07-30T13:22:34;24.50;99.90
1411;DHT22;700;51.906;8.404;2023-07-30T13:27:34;23.30;99.90
1411;DHT22;700;51.906;8.404;2023-07-30T13:32:37;23.00;99.90
1411;DHT22;700;51.906;8.404;2023-07-30T13:37:38;22.40;99.90
1411;DHT22;700;51.906;8.404;2023-07-30T13:42:38;22.00;99.90
1411;DHT22;700;51.906;8.404;2023-07-30T13:47:39;21.40;99.90
1411;DHT22;700;51.906;8.404;2023-07-30T13:52:43;21.10;99.90
1411;DHT22;700;51.906;8.404;2023-07-30T13:57:46;20.70;99.90
1411;DHT22;700;51.906;8.404;2023-07-30T14:02:48;20.30;99.90
1411;DHT22;700;51.906;8.404;2023-07-30T14:07:53;20.10;99.90
1411;DHT22;700;51.906;8.404;2023-07-30T14:12:54;20.20;99.90
1411;DHT22;700;51.906;8.404;2023-07-30T14:17:55;20.00;99.90
1411;DHT22;700;51.906;8.404;2023-07-30T14:22:55;21.80;99.90
1411;DHT22;700;51.906;8.404;2023-07-30T14:27:56;22.50;99.90
1411;DHT22;700;51.906;8.404;2023-07-30T14:32:57;24.00;99.90
1411;DHT22;700;51.906;8.404;2023-07-30T14:37:57;24.90;99.90
1411;DHT22;700;51.906;8.404;2023-07-30T14:43:00;25.70;99.90
1411;DHT22;700;51.906;8.404;2023-07-30T14:48:03;26.40;99.90
1411;DHT22;700;51.906;8.404;2023-07-30T14:53:04;26.60;99.90
1411;DHT22;700;51.906;8.404;2023-07-30T14:58:06;25.60;99.90
1411;DHT22;700;51.906;8.404;2023-07-30T15:03:09;25.10;99.90
1411;DHT22;700;51.906;8.404;2023-07-30T15:08:12;25.00;99.90
1411;DHT22;700;51.906;8.404;2023-07-30T15:13:12;25.50;99.90
1411;DHT22;700;51.906;8.404;2023-07-30T15:18:18;25.20;99.90
1411;DHT22;700;51.906;8.404;2023-07-30T15:23:18;24.70;99.90
1411;DHT22;700;51.906;8.404;2023-07-30T15:28:23;23.70;99.90
1411;DHT22;700;51.906;8.404;2023-07-30T15:33:23;23.70;99.90
1411;DHT22;700;51.906;8.404;2023-07-30T15:38:26;23.80;99.90
1411;DHT22;700;51.906;8.404;2023-07-30T15:43:27;23.90;99.90
1411;DHT22;700;51.906;8.404;2023-07-30T15:48:30;23.40;99.90
1411;DHT22;700;51.906;8.404;2023-07-30T15:53:31;23.00;99.90
1411;DHT22;700;51.906;8.404;2023-07-30T15:58:34;23.10;99.90
1411;DHT22;700;51.906;8.404;2023-07-30T16:03:35;23.60;99.90
1411;DHT22;700;51.906;8.404;2023-07-30T16:08:40;23.70;99.90
1411;DHT22;700;51.906;8.404;2023-07-30T16:13:41;23.60;99.90
1411;DHT22;700;51.906;8.404;2023-07-30T16:18:41;23.10;99.90
1411;DHT22;700;51.906;8.404;2023-07-30T16:23:42;23.60;99.90
1411;DHT22;700;51.906;8.404;2023-07-30T16:28:45;23.80;99.90
1411;DHT22;700;51.906;8.404;2023-07-30T16:33:46;23.40;99.90
1411;DHT22;700;51.906;8.404;2023-07-30T16:38:47;23.60;99.90
1411;DHT22;700;51.906;8.404;2023-07-30T16:43:47;23.30;99.90
1411;DHT22;700;51.906;8.404;2023-07-30T16:48:48;23.60;99.90
1411;DHT22;700;51.906;8.404;2023-07-30T16:53:53;22.80;99.90
1411;DHT22;700;51.906;8.404;2023-07-30T16:58:54;22.70;99.90
1411;DHT22;700;51.906;8.404;2023-07-30T17:03:54;23.20;99.90
1411;DHT22;700;51.906;8.404;2023-07-30T17:08:55;23.00;99.90
1411;DHT22;700;51.906;8.404;2023-07-30T17:13:56;22.70;99.90
1411;DHT22;700;51.906;8.404;2023-07-30T17:18:59;23.10;99.90
1411;DHT22;700;51.906;8.404;2023-07-30T17:23:59;23.10;99.90
1411;DHT22;700;51.906;8.404;2023-07-30T17:29:02;23.00;99.90
1411;DHT22;700;51.906;8.404;2023-07-30T17:34:03;22.60;99.90
1411;DHT22;700;51.906;8.404;2023-07-30T17:39:06;22.90;99.90
1411;DHT22;700;51.906;8.404;2023-07-30T17:44:06;23.10;99.90
1411;DHT22;700;51.906;8.404;2023-07-30T17:49:07;22.90;99.90
1411;DHT22;700;51.906;8.404;2023-07-30T17:54:10;22.70;99.90
1411;DHT22;700;51.906;8.404;2023-07-30T17:59:12;22.60;99.90
1411;DHT22;700;51.906;8.404;2023-07-30T18:04:13;22.60;99.90
1411;DHT22;700;51.906;8.404;2023-07-30T18:09:16;22.50;99.90
1411;DHT22;700;51.906;8.404;2023-07-30T18:14:19;22.90;99.90
1411;DHT22;700;51.906;8.404;2023-07-30T18:19:20;22.80;99.90
1411;DHT22;700;51.906;8.404;2023-07-30T18:24:21;22.50;99.90
1411;DHT22;700;51.906;8.404;2023-07-30T18:29:22;22.60;99.90
1411;DHT22;700;51.906;8.404;2023-07-30T18:34:25;22.70;99.90
1411;DHT22;700;51.906;8.404;2023-07-30T18:39:28;22.10;99.90
1411;DHT22;700;51.906;8.404;2023-07-30T18:44:30;22.50;99.90
1411;DHT22;700;51.906;8.404;2023-07-30T18:49:31;22.30;99.90
1411;DHT22;700;51.906;8.404;2023-07-30T18:54:32;22.30;99.90
1411;DHT22;700;51.906;8.404;2023-07-30T18:59:32;22.40;99.90
1411;DHT22;700;51.906;8.404;2023-07-30T19:04:33;22.40;99.90
1411;DHT22;700;51.906;8.404;2023-07-30T19:09:34;22.30;99.90
1411;DHT22;700;51.906;8.404;2023-07-30T19:14:35;22.40;99.90
1411;DHT22;700;51.906;8.404;2023-07-30T19:19:38;22.00;99.90
1411;DHT22;700;51.906;8.404;2023-07-30T19:24:39;22.10;99.90
1411;DHT22;700;51.906;8.404;2023-07-30T19:29:42;22.30;99.90
1411;DHT22;700;51.906;8.404;2023-07-30T19:34:45;22.20;99.90
1411;DHT22;700;51.906;8.404;2023-07-30T19:39:46;22.20;99.90
1411;DHT22;700;51.906;8.404;2023-07-30T19:44:46;22.10;99.90
1411;DHT22;700;51.906;8.404;2023-07-30T19:49:47;21.90;99.90
1411;DHT22;700;51.906;8.404;2023-07-30T19:54:50;21.60;99.90
1411;DHT22;700;51.906;8.404;2023-07-30T19:59:54;21.30;99.90
1411;DHT22;700;51.906;8.404;2023-07-30T20:04:57;21.30;99.90
1411;DHT22;700;51.906;8.404;2023-07-30T20:10:00;21.30;99.90
1411;DHT22;700;51.906;8.404;2023-07-30T20:15:01;21.10;99.90
1411;DHT22;700;51.906;8.404;2023-07-30T20:20:07;21.20;99.90
1411;DHT22;700;51.906;8.404;2023-07-30T20:25:08;20.70;99.90
1411;DHT22;700;51.906;8.404;2023-07-30T20:30:09;20.70;99.90
1411;DHT22;700;51.906;8.404;2023-07-30T20:35:09;20.70;99.90
1411;DHT22;700;51.906;8.404;2023-07-30T20:40:10;20.50;99.90
1411;DHT22;700;51.906;8.404;2023-07-30T20:45:11;19.70;99.90
1411;DHT22;700;51.906;8.404;2023-07-30T20:50:15;19.70;99.90
1411;DHT22;700;51.906;8.404;2023-07-30T20:55:18;19.00;99.90
1411;DHT22;700;51.906;8.404;2023-07-30T21:00:19;18.90;99.90
1411;DHT22;700;51.906;8.404;2023-07-30T21:05:22;18.80;99.90
1411;DHT22;700;51.906;8.404;2023-07-30T21:10:22;19.00;99.90
1411;DHT22;700;51.906;8.404;2023-07-30T21:15:23;18.70;99.90
1411;DHT22;700;51.906;8.404;2023-07-30T21:20:24;18.80;99.90
1411;DHT22;700;51.906;8.404;2023-07-30T21:25:24;18.60;99.90
1411;DHT22;700;51.906;8.404;2023-07-30T21:30:28;18.80;99.90
1411;DHT22;700;51.906;8.404;2023-07-30T21:35:32;18.80;99.90
1411;DHT22;700;51.906;8.404;2023-07-30T21:40:35;18.50;99.90
1411;DHT22;700;51.906;8.404;2023-07-30T21:45:38;18.50;99.90
1411;DHT22;700;51.906;8.404;2023-07-30T21:50:41;18.60;99.90
1411;DHT22;700;51.906;8.404;2023-07-30T21:55:44;18.60;99.90
1411;DHT22;700;51.906;8.404;2023-07-30T22:00:48;18.80;99.90
1411;DHT22;700;51.906;8.404;2023-07-30T22:05:54;18.70;99.90
1411;DHT22;700;51.906;8.404;2023-07-30T22:10:55;18.50;99.90
1411;DHT22;700;51.906;8.404;2023-07-30T22:15:55;18.60;99.90
1411;DHT22;700;51.906;8.404;2023-07-30T22:20:56;18.40;99.90
1411;DHT22;700;51.906;8.404;2023-07-30T22:25:57;18.30;99.90
1411;DHT22;700;51.906;8.404;2023-07-30T22:31:00;18.50;99.90
1411;DHT22;700;51.906;8.404;2023-07-30T22:36:00;18.30;99.90
1411;DHT22;700;51.906;8.404;2023-07-30T22:41:03;18.40;99.90
1411;DHT22;700;51.906;8.404;2023-07-30T22:46:04;18.40;99.90
1411;DHT22;700;51.906;8.404;2023-07-30T22:51:04;18.40;99.90
1411;DHT22;700;51.906;8.404;2023-07-30T22:56:05;18.40;99.90
1411;DHT22;700;51.906;8.404;2023-07-30T23:01:05;18.50;99.90
1411;DHT22;700;51.906;8.404;2023-07-30T23:06:06;18.50;99.90
1411;DHT22;700;51.906;8.404;2023-07-30T23:11:09;18.30;99.90
1411;DHT22;700;51.906;8.404;2023-07-30T23:16:10;18.20;99.90
1411;DHT22;700;51.906;8.404;2023-07-30T23:21:10;18.30;99.90
1411;DHT22;700;51.906;8.404;2023-07-30T23:26:13;18.50;99.90
1411;DHT22;700;51.906;8.404;2023-07-30T23:31:14;18.70;99.90
1411;DHT22;700;51.906;8.404;2023-07-30T23:36:15;18.90;99.90
1411;DHT22;700;51.906;8.404;2023-07-30T23:41:16;18.90;99.90
1411;DHT22;700;51.906;8.404;2023-07-30T23:46:16;19.00;99.90
1411;DHT22;700;51.906;8.404;2023-07-30T23:51:22;18.70;99.90
1411;DHT22;700;51.906;8.404;2023-07-30T23:56:23;18.70;99.90
